sensor_id;sensor_type;location;lat;lon;timestamp;temperature;humidity
5218;DHT22;26539;51.064;6.346;2023-04-06T00:02:04;7.10;81.70
5218;DHT22;26539;51.064;6.346;2023-04-06T00:04:29;7.10;82.90
5218;DHT22;26539;51.064;6.346;2023-04-06T00:06:55;7.10;82.60
5218;DHT22;26539;51.064;6.346;2023-04-06T00:09:21;7.10;83.40
5218;DHT22;26539;51.064;6.346;2023-04-06T00:11:47;7.10;82.00
5218;DHT22;26539;51.064;6.346;2023-04-06T00:14:12;7.10;83.10
5218;DHT22;26539;51.064;6.346;2023-04-06T00:16:39;7.10;83.40
5218;DHT22;26539;51.064;6.346;2023-04-06T00:19:04;7.00;84.00
5218;DHT22;26539;51.064;6.346;2023-04-06T00:21:30;7.00;83.60
5218;DHT22;26539;51.064;6.346;2023-04-06T00:23:56;7.00;84.00
5218;DHT22;26539;51.064;6.346;2023-04-06T00:26:21;6.90;83.90
5218;DHT22;26539;51.064;6.346;2023-04-06T00:28:47;6.90;84.40
5218;DHT22;26539;51.064;6.346;2023-04-06T00:31:15;6.90;85.60
5218;DHT22;26539;51.064;6.346;2023-04-06T00:33:40;6.80;84.60
5218;DHT22;26539;51.064;6.346;2023-04-06T00:36:06;6.80;85.20
5218;DHT22;26539;51.064;6.346;2023-04-06T00:38:32;6.70;85.00
5218;DHT22;26539;51.064;6.346;2023-04-06T00:40:57;6.70;86.10
5218;DHT22;26539;51.064;6.346;2023-04-06T00:43:23;6.70;85.90
5218;DHT22;26539;51.064;6.346;2023-04-06T00:45:49;6.60;96.50
5218;DHT22;26539;51.064;6.346;2023-04-06T00:48:16;6.60;87.20
5218;DHT22;26539;51.064;6.346;2023-04-06T00:50:42;6.50;86.80
5218;DHT22;26539;51.064;6.346;2023-04-06T00:53:07;6.50;87.30
5218;DHT22;26539;51.064;6.346;2023-04-06T00:55:33;6.50;87.50
5218;DHT22;26539;51.064;6.346;2023-04-06T00:58:01;6.40;89.40
5218;DHT22;26539;51.064;6.346;2023-04-06T01:00:27;6.40;90.00
5218;DHT22;26539;51.064;6.346;2023-04-06T01:02:53;6.30;90.80
5218;DHT22;26539;51.064;6.346;2023-04-06T01:05:18;6.30;91.00
5218;DHT22;26539;51.064;6.346;2023-04-06T01:07:45;6.30;91.50
5218;DHT22;26539;51.064;6.346;2023-04-06T01:10:10;6.30;91.50
5218;DHT22;26539;51.064;6.346;2023-04-06T01:12:36;6.20;91.90
5218;DHT22;26539;51.064;6.346;2023-04-06T01:15:04;6.20;92.00
5218;DHT22;26539;51.064;6.346;2023-04-06T01:17:31;6.20;92.40
5218;DHT22;26539;51.064;6.346;2023-04-06T01:19:56;6.20;92.60
5218;DHT22;26539;51.064;6.346;2023-04-06T01:22:24;6.10;93.00
5218;DHT22;26539;51.064;6.346;2023-04-06T01:24:49;6.10;93.10
5218;DHT22;26539;51.064;6.346;2023-04-06T01:27:15;6.00;93.00
5218;DHT22;26539;51.064;6.346;2023-04-06T01:29:40;6.00;99.90
5218;DHT22;26539;51.064;6.346;2023-04-06T01:32:07;5.90;99.90
5218;DHT22;26539;51.064;6.346;2023-04-06T01:34:33;5.80;94.20
5218;DHT22;26539;51.064;6.346;2023-04-06T01:36:59;5.80;94.80
5218;DHT22;26539;51.064;6.346;2023-04-06T01:39:24;5.70;95.60
5218;DHT22;26539;51.064;6.346;2023-04-06T01:41:50;5.60;95.80
5218;DHT22;26539;51.064;6.346;2023-04-06T01:44:17;5.60;98.00
5218;DHT22;26539;51.064;6.346;2023-04-06T01:46:44;5.50;99.10
5218;DHT22;26539;51.064;6.346;2023-04-06T01:49:09;5.50;99.70
5218;DHT22;26539;51.064;6.346;2023-04-06T01:51:35;5.40;99.90
5218;DHT22;26539;51.064;6.346;2023-04-06T01:54:00;5.40;99.90
5218;DHT22;26539;51.064;6.346;2023-04-06T01:56:26;5.30;99.90
5218;DHT22;26539;51.064;6.346;2023-04-06T01:58:51;5.30;99.90
5218;DHT22;26539;51.064;6.346;2023-04-06T02:01:17;5.30;99.90
5218;DHT22;26539;51.064;6.346;2023-04-06T02:03:43;5.20;99.90
5218;DHT22;26539;51.064;6.346;2023-04-06T02:06:08;5.10;99.90
5218;DHT22;26539;51.064;6.346;2023-04-06T02:08:34;5.10;99.90
5218;DHT22;26539;51.064;6.346;2023-04-06T02:10:59;5.00;99.90
5218;DHT22;26539;51.064;6.346;2023-04-06T02:13:25;5.00;99.90
5218;DHT22;26539;51.064;6.346;2023-04-06T02:15:50;5.00;99.90
5218;DHT22;26539;51.064;6.346;2023-04-06T02:18:16;5.00;99.90
5218;DHT22;26539;51.064;6.346;2023-04-06T02:20:43;5.00;99.90
5218;DHT22;26539;51.064;6.346;2023-04-06T02:23:09;4.90;99.90
5218;DHT22;26539;51.064;6.346;2023-04-06T02:25:35;4.90;99.90
5218;DHT22;26539;51.064;6.346;2023-04-06T02:28:01;4.90;99.90
5218;DHT22;26539;51.064;6.346;2023-04-06T02:30:26;4.90;99.90
5218;DHT22;26539;51.064;6.346;2023-04-06T02:32:52;4.90;99.90
5218;DHT22;26539;51.064;6.346;2023-04-06T02:35:17;4.90;99.90
5218;DHT22;26539;51.064;6.346;2023-04-06T02:37:43;4.90;99.90
5218;DHT22;26539;51.064;6.346;2023-04-06T02:40:09;4.90;99.90
5218;DHT22;26539;51.064;6.346;2023-04-06T02:42:35;4.80;99.90
5218;DHT22;26539;51.064;6.346;2023-04-06T02:45:00;4.80;99.90
5218;DHT22;26539;51.064;6.346;2023-04-06T02:47:26;4.80;99.90
5218;DHT22;26539;51.064;6.346;2023-04-06T02:49:51;4.80;99.90
5218;DHT22;26539;51.064;6.346;2023-04-06T02:52:17;4.80;99.90
5218;DHT22;26539;51.064;6.346;2023-04-06T02:54:43;4.80;99.90
5218;DHT22;26539;51.064;6.346;2023-04-06T02:57:09;4.70;99.90
5218;DHT22;26539;51.064;6.346;2023-04-06T02:59:34;4.70;99.90
5218;DHT22;26539;51.064;6.346;2023-04-06T03:02:00;4.70;99.90
5218;DHT22;26539;51.064;6.346;2023-04-06T03:04:25;4.60;99.90
5218;DHT22;26539;51.064;6.346;2023-04-06T03:06:51;4.60;99.90
5218;DHT22;26539;51.064;6.346;2023-04-06T03:09:17;4.60;99.90
5218;DHT22;26539;51.064;6.346;2023-04-06T03:11:43;4.60;99.90
5218;DHT22;26539;51.064;6.346;2023-04-06T03:14:08;4.60;99.90
5218;DHT22;26539;51.064;6.346;2023-04-06T03:16:34;4.50;99.90
5218;DHT22;26539;51.064;6.346;2023-04-06T03:18:59;4.50;99.90
5218;DHT22;26539;51.064;6.346;2023-04-06T03:21:25;4.40;99.90
5218;DHT22;26539;51.064;6.346;2023-04-06T03:23:50;4.40;99.90
5218;DHT22;26539;51.064;6.346;2023-04-06T03:26:16;4.30;99.90
5218;DHT22;26539;51.064;6.346;2023-04-06T03:28:42;4.30;99.90
5218;DHT22;26539;51.064;6.346;2023-04-06T03:31:08;4.10;99.90
5218;DHT22;26539;51.064;6.346;2023-04-06T03:33:33;4.10;99.90
5218;DHT22;26539;51.064;6.346;2023-04-06T03:35:59;4.00;99.90
5218;DHT22;26539;51.064;6.346;2023-04-06T03:38:24;4.00;99.90
5218;DHT22;26539;51.064;6.346;2023-04-06T03:40:50;4.00;99.90
5218;DHT22;26539;51.064;6.346;2023-04-06T03:43:15;3.90;99.90
5218;DHT22;26539;51.064;6.346;2023-04-06T03:45:41;3.80;99.90
5218;DHT22;26539;51.064;6.346;2023-04-06T03:48:06;3.70;99.90
5218;DHT22;26539;51.064;6.346;2023-04-06T03:50:32;3.60;99.90
5218;DHT22;26539;51.064;6.346;2023-04-06T03:52:57;3.50;99.90
5218;DHT22;26539;51.064;6.346;2023-04-06T03:55:23;3.50;99.90
5218;DHT22;26539;51.064;6.346;2023-04-06T03:57:49;3.50;99.90
5218;DHT22;26539;51.064;6.346;2023-04-06T04:00:14;3.60;99.90
5218;DHT22;26539;51.064;6.346;2023-04-06T04:02:40;3.60;99.90
5218;DHT22;26539;51.064;6.346;2023-04-06T04:05:06;3.60;99.90
5218;DHT22;26539;51.064;6.346;2023-04-06T04:07:32;3.60;99.90
5218;DHT22;26539;51.064;6.346;2023-04-06T04:09:57;3.70;99.90
5218;DHT22;26539;51.064;6.346;2023-04-06T04:12:23;3.70;99.90
5218;DHT22;26539;51.064;6.346;2023-04-06T04:14:48;3.70;99.90
5218;DHT22;26539;51.064;6.346;2023-04-06T04:17:14;3.70;99.90
5218;DHT22;26539;51.064;6.346;2023-04-06T04:19:40;3.70;99.90
5218;DHT22;26539;51.064;6.346;2023-04-06T04:22:05;3.70;99.90
5218;DHT22;26539;51.064;6.346;2023-04-06T04:24:31;3.70;99.90
5218;DHT22;26539;51.064;6.346;2023-04-06T04:26:57;3.80;99.90
5218;DHT22;26539;51.064;6.346;2023-04-06T04:29:22;3.80;99.90
5218;DHT22;26539;51.064;6.346;2023-04-06T04:31:49;3.80;99.90
5218;DHT22;26539;51.064;6.346;2023-04-06T04:34:15;3.80;99.90
5218;DHT22;26539;51.064;6.346;2023-04-06T04:36:41;3.80;99.90
5218;DHT22;26539;51.064;6.346;2023-04-06T04:39:07;3.80;99.90
5218;DHT22;26539;51.064;6.346;2023-04-06T04:41:33;3.90;99.90
5218;DHT22;26539;51.064;6.346;2023-04-06T04:43:58;3.90;99.90
5218;DHT22;26539;51.064;6.346;2023-04-06T04:46:24;4.00;99.90
5218;DHT22;26539;51.064;6.346;2023-04-06T04:48:49;4.10;99.90
5218;DHT22;26539;51.064;6.346;2023-04-06T04:51:15;4.10;99.90
5218;DHT22;26539;51.064;6.346;2023-04-06T04:53:41;4.10;99.90
5218;DHT22;26539;51.064;6.346;2023-04-06T04:56:06;4.20;99.90
5218;DHT22;26539;51.064;6.346;2023-04-06T04:58:32;4.20;99.90
5218;DHT22;26539;51.064;6.346;2023-04-06T05:00:57;4.20;99.90
5218;DHT22;26539;51.064;6.346;2023-04-06T05:03:25;4.30;99.90
5218;DHT22;26539;51.064;6.346;2023-04-06T05:05:51;4.20;99.90
5218;DHT22;26539;51.064;6.346;2023-04-06T05:08:16;4.30;99.90
5218;DHT22;26539;51.064;6.346;2023-04-06T05:10:42;4.30;99.90
5218;DHT22;26539;51.064;6.346;2023-04-06T05:13:08;4.40;99.90
5218;DHT22;26539;51.064;6.346;2023-04-06T05:15:33;4.40;99.90
5218;DHT22;26539;51.064;6.346;2023-04-06T05:18:06;4.40;99.90
5218;DHT22;26539;51.064;6.346;2023-04-06T05:20:32;4.50;99.90
5218;DHT22;26539;51.064;6.346;2023-04-06T05:22:58;4.60;99.90
5218;DHT22;26539;51.064;6.346;2023-04-06T05:25:23;4.80;99.90
5218;DHT22;26539;51.064;6.346;2023-04-06T05:27:49;5.00;99.90
5218;DHT22;26539;51.064;6.346;2023-04-06T05:30:15;5.20;99.90
5218;DHT22;26539;51.064;6.346;2023-04-06T05:32:41;5.40;99.90
5218;DHT22;26539;51.064;6.346;2023-04-06T05:35:08;5.50;99.90
5218;DHT22;26539;51.064;6.346;2023-04-06T05:37:33;5.70;99.90
5218;DHT22;26539;51.064;6.346;2023-04-06T05:39:59;5.80;99.90
5218;DHT22;26539;51.064;6.346;2023-04-06T05:42:25;6.00;99.90
5218;DHT22;26539;51.064;6.346;2023-04-06T05:44:52;6.30;99.90
5218;DHT22;26539;51.064;6.346;2023-04-06T05:47:18;6.60;99.90
5218;DHT22;26539;51.064;6.346;2023-04-06T05:49:43;7.00;99.90
5218;DHT22;26539;51.064;6.346;2023-04-06T05:52:09;8.60;99.90
5218;DHT22;26539;51.064;6.346;2023-04-06T05:54:36;9.90;99.90
5218;DHT22;26539;51.064;6.346;2023-04-06T05:57:02;12.40;99.90
5218;DHT22;26539;51.064;6.346;2023-04-06T05:59:30;14.40;99.90
5218;DHT22;26539;51.064;6.346;2023-04-06T06:01:55;15.10;99.90
5218;DHT22;26539;51.064;6.346;2023-04-06T06:04:21;14.90;99.90
5218;DHT22;26539;51.064;6.346;2023-04-06T06:06:46;14.10;99.90
5218;DHT22;26539;51.064;6.346;2023-04-06T06:09:12;13.70;99.90
5218;DHT22;26539;51.064;6.346;2023-04-06T06:11:38;13.90;99.90
5218;DHT22;26539;51.064;6.346;2023-04-06T06:14:04;14.70;99.90
5218;DHT22;26539;51.064;6.346;2023-04-06T06:16:29;14.90;99.90
5218;DHT22;26539;51.064;6.346;2023-04-06T06:18:55;14.40;99.90
5218;DHT22;26539;51.064;6.346;2023-04-06T06:21:20;13.50;99.90
5218;DHT22;26539;51.064;6.346;2023-04-06T06:23:46;12.80;99.90
5218;DHT22;26539;51.064;6.346;2023-04-06T06:26:13;12.20;99.90
5218;DHT22;26539;51.064;6.346;2023-04-06T06:28:39;11.70;99.90
5218;DHT22;26539;51.064;6.346;2023-04-06T06:31:04;11.50;99.90
5218;DHT22;26539;51.064;6.346;2023-04-06T06:33:30;11.40;99.90
5218;DHT22;26539;51.064;6.346;2023-04-06T06:35:55;11.10;99.90
5218;DHT22;26539;51.064;6.346;2023-04-06T06:38:21;10.90;99.90
5218;DHT22;26539;51.064;6.346;2023-04-06T06:40:47;10.90;99.90
5218;DHT22;26539;51.064;6.346;2023-04-06T06:43:12;11.00;99.90
5218;DHT22;26539;51.064;6.346;2023-04-06T06:45:38;11.00;99.90
5218;DHT22;26539;51.064;6.346;2023-04-06T06:48:03;11.10;99.90
5218;DHT22;26539;51.064;6.346;2023-04-06T06:50:29;11.40;99.90
5218;DHT22;26539;51.064;6.346;2023-04-06T06:52:55;11.70;99.90
5218;DHT22;26539;51.064;6.346;2023-04-06T06:55:20;12.00;99.90
5218;DHT22;26539;51.064;6.346;2023-04-06T06:57:46;12.40;99.90
5218;DHT22;26539;51.064;6.346;2023-04-06T07:00:12;13.00;99.90
5218;DHT22;26539;51.064;6.346;2023-04-06T07:02:38;14.70;99.90
5218;DHT22;26539;51.064;6.346;2023-04-06T07:05:04;17.20;99.90
5218;DHT22;26539;51.064;6.346;2023-04-06T07:07:32;21.50;99.90
5218;DHT22;26539;51.064;6.346;2023-04-06T07:09:57;25.00;99.90
5218;DHT22;26539;51.064;6.346;2023-04-06T07:12:23;23.80;99.90
5218;DHT22;26539;51.064;6.346;2023-04-06T07:14:49;22.20;99.90
5218;DHT22;26539;51.064;6.346;2023-04-06T07:17:14;21.20;99.90
5218;DHT22;26539;51.064;6.346;2023-04-06T07:19:40;20.40;99.90
5218;DHT22;26539;51.064;6.346;2023-04-06T07:22:06;20.50;99.90
5218;DHT22;26539;51.064;6.346;2023-04-06T07:24:31;21.40;99.90
5218;DHT22;26539;51.064;6.346;2023-04-06T07:26:58;22.70;99.90
5218;DHT22;26539;51.064;6.346;2023-04-06T07:29:24;22.30;99.90
5218;DHT22;26539;51.064;6.346;2023-04-06T07:31:49;20.90;99.90
5218;DHT22;26539;51.064;6.346;2023-04-06T07:34:15;19.80;99.90
5218;DHT22;26539;51.064;6.346;2023-04-06T07:36:41;18.80;99.90
5218;DHT22;26539;51.064;6.346;2023-04-06T07:39:07;18.00;99.90
5218;DHT22;26539;51.064;6.346;2023-04-06T07:41:32;17.50;99.90
5218;DHT22;26539;51.064;6.346;2023-04-06T07:43:58;17.20;99.90
5218;DHT22;26539;51.064;6.346;2023-04-06T07:46:24;17.10;99.90
5218;DHT22;26539;51.064;6.346;2023-04-06T07:48:49;17.40;99.90
5218;DHT22;26539;51.064;6.346;2023-04-06T07:51:16;17.90;99.90
5218;DHT22;26539;51.064;6.346;2023-04-06T07:53:45;18.60;99.90
5218;DHT22;26539;51.064;6.346;2023-04-06T07:56:11;18.60;99.90
5218;DHT22;26539;51.064;6.346;2023-04-06T07:58:37;18.60;99.90
5218;DHT22;26539;51.064;6.346;2023-04-06T08:01:03;20.10;99.90
5218;DHT22;26539;51.064;6.346;2023-04-06T08:03:29;20.50;99.90
5218;DHT22;26539;51.064;6.346;2023-04-06T08:05:55;20.20;99.90
5218;DHT22;26539;51.064;6.346;2023-04-06T08:08:20;20.00;99.90
5218;DHT22;26539;51.064;6.346;2023-04-06T08:10:47;20.50;99.90
5218;DHT22;26539;51.064;6.346;2023-04-06T08:13:13;21.00;99.90
5218;DHT22;26539;51.064;6.346;2023-04-06T08:15:39;20.90;99.90
5218;DHT22;26539;51.064;6.346;2023-04-06T08:18:05;20.30;99.90
5218;DHT22;26539;51.064;6.346;2023-04-06T08:20:30;19.80;99.90
5218;DHT22;26539;51.064;6.346;2023-04-06T08:22:56;19.30;99.90
5218;DHT22;26539;51.064;6.346;2023-04-06T08:25:21;19.00;99.50
5218;DHT22;26539;51.064;6.346;2023-04-06T08:27:47;18.70;98.30
5218;DHT22;26539;51.064;6.346;2023-04-06T08:30:16;18.40;97.50
5218;DHT22;26539;51.064;6.346;2023-04-06T08:32:44;18.10;96.30
5218;DHT22;26539;51.064;6.346;2023-04-06T08:35:10;17.50;94.10
5218;DHT22;26539;51.064;6.346;2023-04-06T08:37:35;17.30;93.60
5218;DHT22;26539;51.064;6.346;2023-04-06T08:40:01;17.00;93.10
5218;DHT22;26539;51.064;6.346;2023-04-06T08:42:28;16.80;92.60
5218;DHT22;26539;51.064;6.346;2023-04-06T08:44:57;16.60;92.20
5218;DHT22;26539;51.064;6.346;2023-04-06T08:47:22;16.30;91.40
5218;DHT22;26539;51.064;6.346;2023-04-06T08:49:48;16.00;91.10
5218;DHT22;26539;51.064;6.346;2023-04-06T08:52:16;15.90;90.90
5218;DHT22;26539;51.064;6.346;2023-04-06T08:54:42;15.90;91.40
5218;DHT22;26539;51.064;6.346;2023-04-06T08:57:08;15.90;91.20
5218;DHT22;26539;51.064;6.346;2023-04-06T08:59:35;15.90;91.60
5218;DHT22;26539;51.064;6.346;2023-04-06T09:02:03;15.90;91.80
5218;DHT22;26539;51.064;6.346;2023-04-06T09:04:31;16.10;92.70
5218;DHT22;26539;51.064;6.346;2023-04-06T09:06:58;16.10;93.50
5218;DHT22;26539;51.064;6.346;2023-04-06T09:09:24;16.30;93.90
5218;DHT22;26539;51.064;6.346;2023-04-06T09:11:51;16.50;94.30
5218;DHT22;26539;51.064;6.346;2023-04-06T09:14:29;16.90;95.30
5218;DHT22;26539;51.064;6.346;2023-04-06T09:16:58;17.20;96.40
5218;DHT22;26539;51.064;6.346;2023-04-06T09:19:23;17.80;97.90
5218;DHT22;26539;51.064;6.346;2023-04-06T09:21:49;18.30;98.80
5218;DHT22;26539;51.064;6.346;2023-04-06T09:24:14;18.40;99.50
5218;DHT22;26539;51.064;6.346;2023-04-06T09:26:47;18.50;99.60
5218;DHT22;26539;51.064;6.346;2023-04-06T09:29:23;18.50;98.90
5218;DHT22;26539;51.064;6.346;2023-04-06T09:31:49;18.80;99.90
5218;DHT22;26539;51.064;6.346;2023-04-06T09:34:22;19.20;99.90
5218;DHT22;26539;51.064;6.346;2023-04-06T09:36:50;19.70;99.90
5218;DHT22;26539;51.064;6.346;2023-04-06T09:39:21;20.30;99.90
5218;DHT22;26539;51.064;6.346;2023-04-06T09:41:50;20.90;99.90
5218;DHT22;26539;51.064;6.346;2023-04-06T09:44:16;21.50;99.90
5218;DHT22;26539;51.064;6.346;2023-04-06T09:46:44;21.90;99.90
5218;DHT22;26539;51.064;6.346;2023-04-06T09:49:12;22.00;99.90
5218;DHT22;26539;51.064;6.346;2023-04-06T09:51:46;21.90;99.90
5218;DHT22;26539;51.064;6.346;2023-04-06T09:54:17;21.80;99.90
5218;DHT22;26539;51.064;6.346;2023-04-06T09:56:47;21.70;99.90
5218;DHT22;26539;51.064;6.346;2023-04-06T10:01:51;21.90;99.90
5218;DHT22;26539;51.064;6.346;2023-04-06T10:04:42;22.00;99.90
5218;DHT22;26539;51.064;6.346;2023-04-06T10:07:09;21.90;99.90
5218;DHT22;26539;51.064;6.346;2023-04-06T10:09:37;21.80;99.90
5218;DHT22;26539;51.064;6.346;2023-04-06T10:12:04;21.50;99.40
5218;DHT22;26539;51.064;6.346;2023-04-06T10:14:34;21.20;98.10
5218;DHT22;26539;51.064;6.346;2023-04-06T10:17:04;20.80;96.70
5218;DHT22;26539;51.064;6.346;2023-04-06T10:22:08;20.00;93.30
5218;DHT22;26539;51.064;6.346;2023-04-06T10:24:35;19.70;92.20
5218;DHT22;26539;51.064;6.346;2023-04-06T10:27:02;19.40;91.70
5218;DHT22;26539;51.064;6.346;2023-04-06T10:29:28;19.40;91.60
5218;DHT22;26539;51.064;6.346;2023-04-06T10:31:53;19.30;91.40
5218;DHT22;26539;51.064;6.346;2023-04-06T10:34:20;19.20;91.10
5218;DHT22;26539;51.064;6.346;2023-04-06T10:36:46;19.20;91.30
5218;DHT22;26539;51.064;6.346;2023-04-06T10:39:12;19.10;91.30
5218;DHT22;26539;51.064;6.346;2023-04-06T10:41:45;19.00;88.40
5218;DHT22;26539;51.064;6.346;2023-04-06T10:44:23;18.90;87.60
5218;DHT22;26539;51.064;6.346;2023-04-06T10:46:56;18.90;88.60
5218;DHT22;26539;51.064;6.346;2023-04-06T10:49:22;18.90;88.80
5218;DHT22;26539;51.064;6.346;2023-04-06T10:51:53;18.90;87.20
5218;DHT22;26539;51.064;6.346;2023-04-06T10:54:21;19.10;87.00
5218;DHT22;26539;51.064;6.346;2023-04-06T10:56:48;19.40;89.30
5218;DHT22;26539;51.064;6.346;2023-04-06T10:59:14;19.90;90.90
5218;DHT22;26539;51.064;6.346;2023-04-06T11:01:44;20.30;91.50
5218;DHT22;26539;51.064;6.346;2023-04-06T11:04:10;20.80;92.60
5218;DHT22;26539;51.064;6.346;2023-04-06T11:06:40;21.30;93.50
5218;DHT22;26539;51.064;6.346;2023-04-06T11:09:06;21.70;94.20
5218;DHT22;26539;51.064;6.346;2023-04-06T11:11:32;21.90;94.60
5218;DHT22;26539;51.064;6.346;2023-04-06T11:13:59;21.90;94.10
5218;DHT22;26539;51.064;6.346;2023-04-06T11:16:26;21.70;93.50
5218;DHT22;26539;51.064;6.346;2023-04-06T11:18:59;21.40;92.40
5218;DHT22;26539;51.064;6.346;2023-04-06T11:21:36;21.10;91.40
5218;DHT22;26539;51.064;6.346;2023-04-06T11:24:10;20.70;90.10
5218;DHT22;26539;51.064;6.346;2023-04-06T11:26:43;20.30;88.00
5218;DHT22;26539;51.064;6.346;2023-04-06T11:29:10;19.90;85.40
5218;DHT22;26539;51.064;6.346;2023-04-06T11:31:40;19.40;81.90
5218;DHT22;26539;51.064;6.346;2023-04-06T11:34:15;19.10;79.30
5218;DHT22;26539;51.064;6.346;2023-04-06T11:36:42;18.90;78.60
5218;DHT22;26539;51.064;6.346;2023-04-06T11:39:08;18.80;78.90
5218;DHT22;26539;51.064;6.346;2023-04-06T11:41:33;18.80;79.90
5218;DHT22;26539;51.064;6.346;2023-04-06T11:44:01;18.70;80.30
5218;DHT22;26539;51.064;6.346;2023-04-06T11:46:30;18.60;93.90
5218;DHT22;26539;51.064;6.346;2023-04-06T11:49:00;18.60;81.10
5218;DHT22;26539;51.064;6.346;2023-04-06T11:51:26;18.60;80.50
5218;DHT22;26539;51.064;6.346;2023-04-06T11:53:52;18.60;93.90
5218;DHT22;26539;51.064;6.346;2023-04-06T11:56:28;18.70;80.40
5218;DHT22;26539;51.064;6.346;2023-04-06T11:58:56;18.80;80.60
5218;DHT22;26539;51.064;6.346;2023-04-06T12:01:23;18.80;81.20
5218;DHT22;26539;51.064;6.346;2023-04-06T12:03:49;18.60;79.50
5218;DHT22;26539;51.064;6.346;2023-04-06T12:06:15;18.60;80.00
5218;DHT22;26539;51.064;6.346;2023-04-06T12:08:41;18.50;80.20
5218;DHT22;26539;51.064;6.346;2023-04-06T12:11:06;18.40;78.60
5218;DHT22;26539;51.064;6.346;2023-04-06T12:13:32;18.30;79.60
5218;DHT22;26539;51.064;6.346;2023-04-06T12:15:57;18.00;78.00
5218;DHT22;26539;51.064;6.346;2023-04-06T12:18:23;17.80;76.80
5218;DHT22;26539;51.064;6.346;2023-04-06T12:20:49;17.60;76.60
5218;DHT22;26539;51.064;6.346;2023-04-06T12:23:14;17.30;76.60
5218;DHT22;26539;51.064;6.346;2023-04-06T12:25:42;17.10;76.20
5218;DHT22;26539;51.064;6.346;2023-04-06T12:28:07;17.00;77.40
5218;DHT22;26539;51.064;6.346;2023-04-06T12:30:34;16.80;77.40
5218;DHT22;26539;51.064;6.346;2023-04-06T12:33:00;16.70;78.20
5218;DHT22;26539;51.064;6.346;2023-04-06T12:35:26;16.60;80.30
5218;DHT22;26539;51.064;6.346;2023-04-06T12:37:52;16.40;82.00
5218;DHT22;26539;51.064;6.346;2023-04-06T12:40:18;16.30;95.00
5218;DHT22;26539;51.064;6.346;2023-04-06T12:42:43;16.30;84.50
5218;DHT22;26539;51.064;6.346;2023-04-06T12:45:11;16.20;85.60
5218;DHT22;26539;51.064;6.346;2023-04-06T12:47:37;16.00;87.60
5218;DHT22;26539;51.064;6.346;2023-04-06T12:50:04;16.00;88.30
5218;DHT22;26539;51.064;6.346;2023-04-06T12:52:31;15.90;90.20
5218;DHT22;26539;51.064;6.346;2023-04-06T12:54:57;15.80;90.90
5218;DHT22;26539;51.064;6.346;2023-04-06T12:57:24;15.70;91.90
5218;DHT22;26539;51.064;6.346;2023-04-06T12:59:50;15.60;92.50
5218;DHT22;26539;51.064;6.346;2023-04-06T13:02:16;15.50;92.80
5218;DHT22;26539;51.064;6.346;2023-04-06T13:04:42;15.40;93.10
5218;DHT22;26539;51.064;6.346;2023-04-06T13:07:08;15.30;94.30
5218;DHT22;26539;51.064;6.346;2023-04-06T13:09:34;15.20;94.50
5218;DHT22;26539;51.064;6.346;2023-04-06T13:11:59;15.10;95.20
5218;DHT22;26539;51.064;6.346;2023-04-06T13:14:26;15.00;95.90
5218;DHT22;26539;51.064;6.346;2023-04-06T13:16:51;14.90;99.90
5218;DHT22;26539;51.064;6.346;2023-04-06T13:19:17;14.70;96.80
5218;DHT22;26539;51.064;6.346;2023-04-06T13:21:43;14.50;97.50
5218;DHT22;26539;51.064;6.346;2023-04-06T13:24:09;14.30;99.00
5218;DHT22;26539;51.064;6.346;2023-04-06T13:26:35;14.10;99.90
5218;DHT22;26539;51.064;6.346;2023-04-06T13:29:01;13.80;99.90
5218;DHT22;26539;51.064;6.346;2023-04-06T13:31:28;13.60;99.90
5218;DHT22;26539;51.064;6.346;2023-04-06T13:33:53;13.50;99.90
5218;DHT22;26539;51.064;6.346;2023-04-06T13:36:19;13.30;99.90
5218;DHT22;26539;51.064;6.346;2023-04-06T13:38:45;13.20;99.90
5218;DHT22;26539;51.064;6.346;2023-04-06T13:41:20;13.10;99.90
5218;DHT22;26539;51.064;6.346;2023-04-06T13:43:46;13.00;99.90
5218;DHT22;26539;51.064;6.346;2023-04-06T13:46:12;12.90;99.90
5218;DHT22;26539;51.064;6.346;2023-04-06T13:48:37;12.90;99.90
5218;DHT22;26539;51.064;6.346;2023-04-06T13:51:13;12.90;99.90
5218;DHT22;26539;51.064;6.346;2023-04-06T13:53:39;12.90;99.90
5218;DHT22;26539;51.064;6.346;2023-04-06T13:56:06;13.00;99.90
5218;DHT22;26539;51.064;6.346;2023-04-06T13:58:32;13.00;99.90
5218;DHT22;26539;51.064;6.346;2023-04-06T14:01:05;13.10;99.90
5218;DHT22;26539;51.064;6.346;2023-04-06T14:03:31;13.00;99.90
5218;DHT22;26539;51.064;6.346;2023-04-06T14:05:57;12.90;99.90
5218;DHT22;26539;51.064;6.346;2023-04-06T14:08:22;12.80;99.90
5218;DHT22;26539;51.064;6.346;2023-04-06T14:10:48;12.80;99.90
5218;DHT22;26539;51.064;6.346;2023-04-06T14:13:13;12.80;99.90
5218;DHT22;26539;51.064;6.346;2023-04-06T14:15:39;12.70;99.90
5218;DHT22;26539;51.064;6.346;2023-04-06T14:18:05;12.70;99.90
5218;DHT22;26539;51.064;6.346;2023-04-06T14:20:31;12.70;99.90
5218;DHT22;26539;51.064;6.346;2023-04-06T14:23:00;12.70;99.90
5218;DHT22;26539;51.064;6.346;2023-04-06T14:25:25;12.70;99.90
5218;DHT22;26539;51.064;6.346;2023-04-06T14:27:51;12.60;99.90
5218;DHT22;26539;51.064;6.346;2023-04-06T14:30:16;12.60;99.90
5218;DHT22;26539;51.064;6.346;2023-04-06T14:32:42;12.50;99.90
5218;DHT22;26539;51.064;6.346;2023-04-06T14:35:08;12.50;99.90
5218;DHT22;26539;51.064;6.346;2023-04-06T14:37:34;12.40;99.90
5218;DHT22;26539;51.064;6.346;2023-04-06T14:39:59;12.40;99.90
5218;DHT22;26539;51.064;6.346;2023-04-06T14:42:25;12.30;99.90
5218;DHT22;26539;51.064;6.346;2023-04-06T14:44:51;12.30;99.90
5218;DHT22;26539;51.064;6.346;2023-04-06T14:47:18;12.20;99.90
5218;DHT22;26539;51.064;6.346;2023-04-06T14:49:46;12.20;99.90
5218;DHT22;26539;51.064;6.346;2023-04-06T14:52:12;12.20;99.90
5218;DHT22;26539;51.064;6.346;2023-04-06T14:54:38;12.20;99.90
5218;DHT22;26539;51.064;6.346;2023-04-06T14:57:03;12.10;99.90
5218;DHT22;26539;51.064;6.346;2023-04-06T14:59:29;12.10;1.00
5218;DHT22;26539;51.064;6.346;2023-04-06T15:01:55;12.10;1.00
5218;DHT22;26539;51.064;6.346;2023-04-06T15:04:20;12.10;1.00
5218;DHT22;26539;51.064;6.346;2023-04-06T15:06:46;12.10;1.00
5218;DHT22;26539;51.064;6.346;2023-04-06T15:09:11;12.00;1.00
5218;DHT22;26539;51.064;6.346;2023-04-06T15:11:37;12.00;1.00
5218;DHT22;26539;51.064;6.346;2023-04-06T15:14:03;11.90;16.20
5218;DHT22;26539;51.064;6.346;2023-04-06T15:16:29;11.90;99.90
5218;DHT22;26539;51.064;6.346;2023-04-06T15:18:58;11.70;99.90
5218;DHT22;26539;51.064;6.346;2023-04-06T15:21:24;11.60;1.00
5218;DHT22;26539;51.064;6.346;2023-04-06T15:23:50;11.40;99.90
5218;DHT22;26539;51.064;6.346;2023-04-06T15:26:16;11.40;99.90
5218;DHT22;26539;51.064;6.346;2023-04-06T15:28:42;11.30;1.00
5218;DHT22;26539;51.064;6.346;2023-04-06T15:31:17;11.30;1.00
5218;DHT22;26539;51.064;6.346;2023-04-06T15:33:42;11.20;99.90
5218;DHT22;26539;51.064;6.346;2023-04-06T15:36:26;11.10;1.00
5218;DHT22;26539;51.064;6.346;2023-04-06T15:38:57;11.10;99.90
5218;DHT22;26539;51.064;6.346;2023-04-06T15:41:23;11.00;1.00
5218;DHT22;26539;51.064;6.346;2023-04-06T15:43:48;10.90;1.00
5218;DHT22;26539;51.064;6.346;2023-04-06T15:46:18;10.90;1.00
5218;DHT22;26539;51.064;6.346;2023-04-06T15:48:44;10.80;99.90
5218;DHT22;26539;51.064;6.346;2023-04-06T15:51:09;10.70;1.00
5218;DHT22;26539;51.064;6.346;2023-04-06T15:53:35;10.60;99.90